createdAt,value
2023-05-11T00:00:31.426Z,51.84
2023-05-11T00:02:57.826Z,52.00
2023-05-11T00:05:24.200Z,52.02
2023-05-11T00:07:50.657Z,51.84
2023-05-11T00:10:17.234Z,51.86
2023-05-11T00:12:43.702Z,51.91
2023-05-11T00:15:10.124Z,51.99
2023-05-11T00:17:36.527Z,51.81
2023-05-11T00:20:03.281Z,51.96
2023-05-11T00:22:29.863Z,52.13
2023-05-11T00:24:56.207Z,51.85
2023-05-11T00:27:22.570Z,51.82
2023-05-11T00:29:48.903Z,51.84
2023-05-11T00:32:15.384Z,51.86
2023-05-11T00:34:42.030Z,51.81
2023-05-11T00:37:08.620Z,51.84
2023-05-11T00:39:40.139Z,51.74
2023-05-11T00:42:06.492Z,51.89
2023-05-11T00:44:33.443Z,51.74
2023-05-11T00:47:00.181Z,51.85
2023-05-11T00:49:26.868Z,51.80
2023-05-11T00:51:53.345Z,52.00
2023-05-11T00:54:19.727Z,51.83
2023-05-11T00:56:46.386Z,51.98
2023-05-11T00:59:14.040Z,51.93
2023-05-11T01:01:40.552Z,51.85
2023-05-11T01:04:06.911Z,52.04
2023-05-11T01:06:44.676Z,52.07
2023-05-11T01:09:18.500Z,51.75
2023-05-11T01:11:49.405Z,51.83
2023-05-11T01:14:21.051Z,51.91
2023-05-11T01:16:48.449Z,51.92
2023-05-11T01:19:23.132Z,52.04
2023-05-11T01:21:49.478Z,51.71
2023-05-11T01:24:15.759Z,51.75
2023-05-11T01:27:00.638Z,51.75
2023-05-11T01:29:33.983Z,51.76
2023-05-11T01:32:00.451Z,51.76
2023-05-11T01:34:28.519Z,51.98
2023-05-11T01:36:56.000Z,52.02
2023-05-11T01:39:24.149Z,51.73
2023-05-11T01:41:51.506Z,51.90
2023-05-11T01:44:18.070Z,51.93
2023-05-11T01:46:44.428Z,51.91
2023-05-11T01:49:10.795Z,51.64
2023-05-11T01:51:37.550Z,51.84
2023-05-11T01:54:06.968Z,51.75
2023-05-11T01:56:33.626Z,51.92
2023-05-11T01:58:59.965Z,51.64
2023-05-11T02:01:26.794Z,51.74
2023-05-11T02:03:53.196Z,51.90
2023-05-11T02:06:19.766Z,51.80
2023-05-11T02:08:46.134Z,51.76
2023-05-11T02:11:12.455Z,51.86
2023-05-11T02:13:39.204Z,51.66
2023-05-11T02:16:05.800Z,51.78
2023-05-11T02:18:32.257Z,51.70
2023-05-11T02:21:00.081Z,51.84
2023-05-11T02:23:27.639Z,51.77
2023-05-11T02:25:54.462Z,51.64
2023-05-11T02:28:21.083Z,51.57
2023-05-11T02:30:48.511Z,51.75
2023-05-11T02:33:18.224Z,51.69
2023-05-11T02:35:44.728Z,51.76
2023-05-11T02:38:11.272Z,51.92
2023-05-11T02:40:39.842Z,51.82
2023-05-11T02:43:10.680Z,51.86
2023-05-11T02:45:42.973Z,51.79
2023-05-11T02:48:10.169Z,51.68
2023-05-11T02:50:37.407Z,51.84
2023-05-11T02:53:06.548Z,51.88
2023-05-11T02:55:33.306Z,51.78
2023-05-11T02:57:59.699Z,51.75
2023-05-11T03:00:26.395Z,51.73
2023-05-11T03:02:52.960Z,51.81
2023-05-11T03:05:21.082Z,51.84
2023-05-11T03:07:47.521Z,51.82
2023-05-11T03:10:13.854Z,51.66
2023-05-11T03:12:43.318Z,51.79
2023-05-11T03:15:12.021Z,51.65
2023-05-11T03:17:40.024Z,51.65
2023-05-11T03:20:07.592Z,51.60
2023-05-11T03:22:34.354Z,51.49
2023-05-11T03:25:00.776Z,51.78
2023-05-11T03:27:27.241Z,51.54
2023-05-11T03:29:53.615Z,51.64
2023-05-11T03:32:20.023Z,51.72
2023-05-11T03:34:46.775Z,51.60
2023-05-11T03:37:15.638Z,51.60
2023-05-11T03:39:42.718Z,51.63
2023-05-11T03:42:09.684Z,51.40
2023-05-11T03:44:36.250Z,51.18
2023-05-11T03:47:03.799Z,51.18
2023-05-11T03:49:30.180Z,51.20
2023-05-11T03:51:56.725Z,51.04
2023-05-11T03:54:26.106Z,50.95
2023-05-11T03:56:52.894Z,50.91
2023-05-11T03:59:19.223Z,50.78
2023-05-11T04:01:45.575Z,50.93
2023-05-11T04:04:12.150Z,51.00
2023-05-11T04:06:38.589Z,50.68
2023-05-11T04:09:10.136Z,50.67
2023-05-11T04:11:37.085Z,50.56
2023-05-11T04:14:03.443Z,50.61
2023-05-11T04:16:29.900Z,50.75
2023-05-11T04:18:56.342Z,50.74
2023-05-11T04:21:22.747Z,50.64
2023-05-11T04:23:49.097Z,50.93
2023-05-11T04:26:15.435Z,50.71
2023-05-11T04:28:43.508Z,50.70
2023-05-11T04:31:10.481Z,50.49
2023-05-11T04:33:37.273Z,50.61
2023-05-11T04:36:03.902Z,50.71
2023-05-11T04:38:30.850Z,50.66
2023-05-11T04:40:57.189Z,50.62
2023-05-11T04:43:23.853Z,50.58
2023-05-11T04:45:50.330Z,50.50
2023-05-11T04:48:21.627Z,50.41
2023-05-11T04:50:48.229Z,50.31
2023-05-11T04:53:16.525Z,50.43
2023-05-11T04:55:43.305Z,50.40
2023-05-11T04:58:10.642Z,50.24
2023-05-11T05:00:37.022Z,50.40
2023-05-11T05:03:03.472Z,50.25
2023-05-11T05:05:29.901Z,50.22
2023-05-11T05:07:56.218Z,50.17
2023-05-11T05:10:22.580Z,50.08
2023-05-11T05:12:48.945Z,49.68
2023-05-11T05:15:15.296Z,49.24
2023-05-11T05:17:41.660Z,49.36
2023-05-11T05:20:08.177Z,49.60
2023-05-11T05:22:34.960Z,49.33
2023-05-11T05:25:02.293Z,49.54
2023-05-11T05:27:28.989Z,49.52
2023-05-11T05:29:56.567Z,49.63
2023-05-11T05:32:24.994Z,49.37
2023-05-11T05:34:51.435Z,49.46
2023-05-11T05:37:17.996Z,49.01
2023-05-11T05:39:46.514Z,49.42
2023-05-11T05:42:14.635Z,49.08
2023-05-11T05:44:41.175Z,48.88
2023-05-11T05:47:07.793Z,48.24
2023-05-11T05:49:36.108Z,47.98
2023-05-11T05:52:03.944Z,47.66
2023-05-11T05:54:30.366Z,47.42
2023-05-11T05:56:57.169Z,47.11
2023-05-11T05:59:24.363Z,47.13
2023-05-11T06:01:54.934Z,47.08
2023-05-11T06:04:22.788Z,47.50
2023-05-11T06:06:49.159Z,48.37
2023-05-11T06:09:15.630Z,47.67
2023-05-11T06:11:41.989Z,46.84
2023-05-11T06:14:08.886Z,47.09
2023-05-11T06:16:35.308Z,47.62
2023-05-11T06:19:01.839Z,47.14
2023-05-11T06:21:29.002Z,46.99
2023-05-11T06:23:55.455Z,46.76
2023-05-11T06:26:25.022Z,46.26
2023-05-11T06:28:52.680Z,46.79
2023-05-11T06:31:19.201Z,46.34
2023-05-11T06:33:46.763Z,46.56
2023-05-11T06:36:20.776Z,46.65
2023-05-11T06:38:47.121Z,46.79
2023-05-11T06:41:13.496Z,46.81
2023-05-11T06:43:39.828Z,46.45
2023-05-11T06:46:17.997Z,46.52
2023-05-11T06:48:44.482Z,46.47
2023-05-11T06:51:11.591Z,46.97
2023-05-11T06:53:38.208Z,45.99
2023-05-11T06:56:04.600Z,45.92
2023-05-11T06:58:31.375Z,45.99
2023-05-11T07:00:58.009Z,46.03
2023-05-11T07:03:24.446Z,45.30
2023-05-11T07:05:50.793Z,45.35
2023-05-11T07:08:17.154Z,45.36
2023-05-11T07:10:43.504Z,44.85
2023-05-11T07:13:09.887Z,45.29
2023-05-11T07:15:36.230Z,45.14
2023-05-11T07:18:02.757Z,45.54
2023-05-11T07:20:29.114Z,45.67
2023-05-11T07:22:59.187Z,45.63
2023-05-11T07:25:25.524Z,45.48
2023-05-11T07:27:51.893Z,45.64
2023-05-11T07:30:18.884Z,45.84
2023-05-11T07:32:45.405Z,45.80
2023-05-11T07:35:11.749Z,45.84
2023-05-11T07:37:38.077Z,46.20
2023-05-11T07:40:04.652Z,45.50
2023-05-11T07:42:31.013Z,45.63
2023-05-11T07:44:57.335Z,45.44
2023-05-11T07:47:24.864Z,45.53
2023-05-11T07:49:51.238Z,45.71
2023-05-11T07:52:17.594Z,46.21
2023-05-11T07:54:43.964Z,46.11
2023-05-11T07:57:11.446Z,46.07
2023-05-11T07:59:38.036Z,45.24
2023-05-11T08:02:05.697Z,45.34
2023-05-11T08:04:32.629Z,45.26
2023-05-11T08:06:58.982Z,45.36
2023-05-11T08:09:25.366Z,45.13
2023-05-11T08:11:53.143Z,45.27
2023-05-11T08:14:21.076Z,46.05
2023-05-11T08:16:48.396Z,45.82
2023-05-11T08:19:14.899Z,45.75
2023-05-11T08:21:41.792Z,45.63
2023-05-11T08:24:08.142Z,45.85
2023-05-11T08:26:34.584Z,45.90
2023-05-11T08:29:00.923Z,45.48
2023-05-11T08:31:27.292Z,45.10
2023-05-11T08:33:53.804Z,45.23
2023-05-11T08:36:20.414Z,44.90
2023-05-11T08:38:46.737Z,45.63
2023-05-11T08:41:13.080Z,45.18
2023-05-11T08:43:39.716Z,44.53
2023-05-11T08:46:09.605Z,44.60
2023-05-11T08:48:36.244Z,44.46
2023-05-11T08:51:04.256Z,44.64
2023-05-11T08:53:30.717Z,44.96
2023-05-11T08:55:57.918Z,45.13
2023-05-11T08:58:24.337Z,45.33
2023-05-11T09:00:50.744Z,45.12
2023-05-11T09:03:17.505Z,45.32
2023-05-11T09:05:44.539Z,45.40
2023-05-11T09:08:11.186Z,45.75
2023-05-11T09:10:37.934Z,46.00
2023-05-11T09:13:04.722Z,45.33
2023-05-11T09:15:36.991Z,45.76
2023-05-11T09:18:04.737Z,45.81
2023-05-11T09:20:34.229Z,45.63
2023-05-11T09:23:00.559Z,45.86
2023-05-11T09:25:27.206Z,45.71
2023-05-11T09:27:53.549Z,45.85
2023-05-11T09:30:23.683Z,45.95
2023-05-11T09:32:54.382Z,45.69
2023-05-11T09:35:21.647Z,45.18
2023-05-11T09:37:57.567Z,45.02
2023-05-11T09:40:27.277Z,45.64
2023-05-11T09:42:54.238Z,45.75
2023-05-11T09:45:39.356Z,45.81
2023-05-11T09:48:23.990Z,45.96
2023-05-11T09:50:51.129Z,45.85
2023-05-11T09:53:17.516Z,45.94
2023-05-11T09:55:53.279Z,46.35
2023-05-11T09:58:19.672Z,46.24
2023-05-11T10:00:52.329Z,46.21
2023-05-11T10:03:18.891Z,46.21
2023-05-11T10:06:00.568Z,46.42
2023-05-11T10:08:30.430Z,46.47
2023-05-11T10:10:56.813Z,46.70
2023-05-11T10:13:23.631Z,46.49
2023-05-11T10:15:51.437Z,46.68
2023-05-11T10:18:20.124Z,46.54
2023-05-11T10:20:46.837Z,46.51
2023-05-11T10:23:13.927Z,46.75
2023-05-11T10:25:40.256Z,46.97
2023-05-11T10:28:06.596Z,47.79
2023-05-11T10:30:33.243Z,46.94
2023-05-11T10:33:00.718Z,46.17
2023-05-11T10:35:27.450Z,41.18
2023-05-11T10:37:53.820Z,44.14
2023-05-11T10:40:20.401Z,44.53
2023-05-11T10:43:05.441Z,43.69
2023-05-11T10:45:32.126Z,42.67
2023-05-11T10:48:10.041Z,42.13
2023-05-11T10:50:55.022Z,42.41
2023-05-11T10:53:24.014Z,40.33
2023-05-11T10:56:13.793Z,41.75
2023-05-11T10:58:43.761Z,41.40
2023-05-11T11:01:18.990Z,40.97
2023-05-11T11:04:02.789Z,42.21
2023-05-11T11:06:29.713Z,41.40
2023-05-11T11:08:57.834Z,41.03
2023-05-11T11:11:40.164Z,40.66
2023-05-11T11:14:07.004Z,38.67
2023-05-11T11:16:33.549Z,41.09
2023-05-11T11:19:18.770Z,40.79
2023-05-11T11:21:45.513Z,40.42
2023-05-11T11:24:31.811Z,40.60
2023-05-11T11:26:58.227Z,38.23
2023-05-11T11:29:24.688Z,40.14
2023-05-11T11:31:51.058Z,39.81
2023-05-11T11:34:27.153Z,39.99
2023-05-11T11:36:56.217Z,39.94
2023-05-11T11:39:22.535Z,40.06
2023-05-11T11:42:01.376Z,39.91
2023-05-11T11:44:27.710Z,39.50
2023-05-11T11:47:12.944Z,39.57
2023-05-11T11:49:39.694Z,39.66
2023-05-11T11:52:08.934Z,39.06
2023-05-11T11:54:39.593Z,39.63
2023-05-11T11:57:11.885Z,38.85
2023-05-11T11:59:45.511Z,39.65
2023-05-11T12:02:11.856Z,39.22
2023-05-11T12:04:39.496Z,38.67
2023-05-11T12:07:07.786Z,36.77
2023-05-11T12:09:34.226Z,37.83
2023-05-11T12:12:02.286Z,39.17
2023-05-11T12:14:28.651Z,38.83
2023-05-11T12:17:01.400Z,38.72
2023-05-11T12:19:28.266Z,37.32
2023-05-11T12:21:54.622Z,37.82
2023-05-11T12:24:20.931Z,38.71
2023-05-11T12:26:47.251Z,38.76
2023-05-11T12:29:14.168Z,38.46
2023-05-11T12:31:41.148Z,38.56
2023-05-11T12:34:07.562Z,38.93
2023-05-11T12:36:34.305Z,38.91
2023-05-11T12:39:00.726Z,36.40
2023-05-11T12:41:27.407Z,35.91
2023-05-11T12:43:53.922Z,37.63
2023-05-11T12:46:20.552Z,37.76
2023-05-11T12:48:47.000Z,38.20
2023-05-11T12:51:13.359Z,37.47
2023-05-11T12:53:40.066Z,36.82
2023-05-11T12:56:06.447Z,38.65
2023-05-11T12:58:36.096Z,37.99
2023-05-11T13:01:02.443Z,37.71
2023-05-11T13:03:30.601Z,37.85
2023-05-11T13:06:07.068Z,39.99
2023-05-11T13:08:33.764Z,39.84
2023-05-11T13:11:38.933Z,37.81
2023-05-11T13:14:14.820Z,36.94
2023-05-11T13:16:41.234Z,39.09
2023-05-11T13:19:08.454Z,40.64
2023-05-11T13:21:34.899Z,41.67
2023-05-11T13:24:03.645Z,41.89
2023-05-11T13:26:30.301Z,42.29
2023-05-11T13:29:09.461Z,42.82
2023-05-11T13:32:03.345Z,42.96
2023-05-11T13:34:29.750Z,43.09
2023-05-11T13:36:56.443Z,43.28
2023-05-11T13:39:22.851Z,43.62
2023-05-11T13:41:49.181Z,43.62
2023-05-11T13:44:15.672Z,43.78
2023-05-11T13:46:42.032Z,44.04
2023-05-11T13:49:08.633Z,43.94
2023-05-11T13:51:35.007Z,43.81
2023-05-11T13:54:02.363Z,43.95
2023-05-11T13:56:28.695Z,44.13
2023-05-11T13:58:55.844Z,44.18
2023-05-11T14:01:23.031Z,44.35
2023-05-11T14:03:52.702Z,44.29
2023-05-11T14:06:20.786Z,44.50
2023-05-11T14:08:47.135Z,44.43
2023-05-11T14:11:13.477Z,44.81
2023-05-11T14:13:39.811Z,44.03
2023-05-11T14:16:06.258Z,44.48
2023-05-11T14:18:32.802Z,44.55
2023-05-11T14:20:59.243Z,44.54
2023-05-11T14:23:25.816Z,44.64
2023-05-11T14:25:52.174Z,44.44
2023-05-11T14:28:18.518Z,44.50
2023-05-11T14:30:44.952Z,44.14
2023-05-11T14:33:11.395Z,44.07
2023-05-11T14:35:39.791Z,44.71
2023-05-11T14:38:06.439Z,44.53
2023-05-11T14:40:33.476Z,44.59
2023-05-11T14:42:59.817Z,44.84
2023-05-11T14:45:26.206Z,44.72
2023-05-11T14:47:52.580Z,45.00
2023-05-11T14:50:18.966Z,44.98
2023-05-11T14:52:45.323Z,45.06
2023-05-11T14:55:11.684Z,44.57
2023-05-11T14:57:38.068Z,44.31
2023-05-11T15:00:04.544Z,44.52
2023-05-11T15:02:30.980Z,44.27
2023-05-11T15:04:57.352Z,44.33
2023-05-11T15:07:23.726Z,44.23
2023-05-11T15:09:50.778Z,44.50
2023-05-11T15:12:17.131Z,45.03
2023-05-11T15:14:43.469Z,45.12
2023-05-11T15:17:09.808Z,44.92
2023-05-11T15:19:36.176Z,44.99
2023-05-11T15:22:02.581Z,44.70
2023-05-11T15:24:28.927Z,44.68
2023-05-11T15:26:55.294Z,44.34
2023-05-11T15:29:22.284Z,44.20
2023-05-11T15:31:48.742Z,44.55
2023-05-11T15:34:15.175Z,44.44
2023-05-11T15:36:41.542Z,44.60
2023-05-11T15:39:08.376Z,44.89
2023-05-11T15:41:34.741Z,45.01
2023-05-11T15:44:01.087Z,44.86
2023-05-11T15:46:27.521Z,44.54
2023-05-11T15:48:54.178Z,44.48
2023-05-11T15:51:20.996Z,44.71
2023-05-11T15:53:47.353Z,44.92
2023-05-11T15:56:13.685Z,45.07
2023-05-11T15:58:40.263Z,45.61
2023-05-11T16:01:06.752Z,45.65
2023-05-11T16:03:33.282Z,45.49
2023-05-11T16:05:59.769Z,46.22
2023-05-11T16:08:26.124Z,45.82
2023-05-11T16:10:52.569Z,45.39
2023-05-11T16:13:18.965Z,45.16
2023-05-11T16:15:45.421Z,44.92
2023-05-11T16:18:11.882Z,45.11
2023-05-11T16:20:38.362Z,45.08
2023-05-11T16:23:04.777Z,45.66
2023-05-11T16:25:31.137Z,45.69
2023-05-11T16:27:57.504Z,46.14
2023-05-11T16:30:25.398Z,45.91
2023-05-11T16:32:52.101Z,46.07
2023-05-11T16:35:18.649Z,46.14
2023-05-11T16:37:45.040Z,46.20
2023-05-11T16:40:11.572Z,45.58
2023-05-11T16:42:38.208Z,45.21
2023-05-11T16:45:04.822Z,45.52
2023-05-11T16:47:31.436Z,45.37
2023-05-11T16:49:57.863Z,45.18
2023-05-11T16:52:24.693Z,45.11
2023-05-11T16:54:51.092Z,45.48
2023-05-11T16:57:17.418Z,45.39
2023-05-11T16:59:43.755Z,45.45
2023-05-11T17:02:10.285Z,45.43
2023-05-11T17:04:36.795Z,45.59
2023-05-11T17:07:03.417Z,45.76
2023-05-11T17:09:30.008Z,44.95
2023-05-11T17:11:56.335Z,45.48
2023-05-11T17:14:22.824Z,45.55
2023-05-11T17:16:49.305Z,45.37
2023-05-11T17:19:16.396Z,45.93
2023-05-11T17:21:42.894Z,45.88
2023-05-11T17:24:09.332Z,45.78
2023-05-11T17:26:47.296Z,46.51
2023-05-11T17:29:15.385Z,45.30
2023-05-11T17:31:41.969Z,45.02
2023-05-11T17:34:09.063Z,41.49
2023-05-11T17:36:35.915Z,40.50
2023-05-11T17:39:02.352Z,38.05
2023-05-11T17:41:28.711Z,37.18
2023-05-11T17:43:55.113Z,36.54
2023-05-11T17:46:21.530Z,36.05
2023-05-11T17:48:47.917Z,35.26
2023-05-11T17:51:14.279Z,35.17
2023-05-11T17:53:40.602Z,34.77
2023-05-11T17:56:09.894Z,35.10
2023-05-11T17:58:36.275Z,34.26
2023-05-11T18:01:09.249Z,34.80
2023-05-11T18:03:35.839Z,35.10
2023-05-11T18:06:02.471Z,35.10
2023-05-11T18:08:28.800Z,34.77
2023-05-11T18:10:55.598Z,35.07
2023-05-11T18:13:22.664Z,35.17
2023-05-11T18:15:49.118Z,35.48
2023-05-11T18:18:15.564Z,36.04
2023-05-11T18:20:45.296Z,36.55
2023-05-11T18:23:12.177Z,36.97
2023-05-11T18:25:38.509Z,36.89
2023-05-11T18:28:04.847Z,37.58
2023-05-11T18:30:32.365Z,38.02
2023-05-11T18:32:58.725Z,37.72
2023-05-11T18:35:25.070Z,38.69
2023-05-11T18:37:51.421Z,39.16
2023-05-11T18:40:17.942Z,39.79
2023-05-11T18:42:44.708Z,39.93
2023-05-11T18:45:11.055Z,40.05
2023-05-11T18:47:37.446Z,40.91
2023-05-11T18:50:04.149Z,40.39
2023-05-11T18:52:30.537Z,41.20
2023-05-11T18:54:56.875Z,42.82
2023-05-11T18:57:23.225Z,42.11
2023-05-11T18:59:50.549Z,42.29
2023-05-11T19:02:16.930Z,42.10
2023-05-11T19:04:43.345Z,41.98
2023-05-11T19:07:09.680Z,42.17
2023-05-11T19:09:36.016Z,42.30
2023-05-11T19:12:03.933Z,42.67
2023-05-11T19:14:30.380Z,42.63
2023-05-11T19:16:56.813Z,42.85
2023-05-11T19:19:23.248Z,42.73
2023-05-11T19:21:50.569Z,43.08
2023-05-11T19:24:16.926Z,42.86
2023-05-11T19:26:47.380Z,42.93
2023-05-11T19:29:22.588Z,43.36
2023-05-11T19:31:51.410Z,43.08
2023-05-11T19:34:17.769Z,43.55
2023-05-11T19:36:44.097Z,43.55
2023-05-11T19:39:10.489Z,43.69
2023-05-11T19:41:36.866Z,43.56
2023-05-11T19:44:03.193Z,43.75
2023-05-11T19:46:29.580Z,43.80
2023-05-11T19:48:56.009Z,43.82
2023-05-11T19:51:22.336Z,43.92
2023-05-11T19:53:48.713Z,43.76
2023-05-11T19:56:15.041Z,43.89
2023-05-11T19:58:41.730Z,44.09
2023-05-11T20:01:08.109Z,44.09
2023-05-11T20:03:34.653Z,43.81
2023-05-11T20:06:01.065Z,43.96
2023-05-11T20:08:27.403Z,44.27
2023-05-11T20:10:53.714Z,44.21
2023-05-11T20:13:20.029Z,44.29
2023-05-11T20:15:46.386Z,44.07
2023-05-11T20:18:12.753Z,44.18
2023-05-11T20:20:39.133Z,44.45
2023-05-11T20:23:06.371Z,44.58
2023-05-11T20:25:32.727Z,44.29
2023-05-11T20:27:59.059Z,44.23
2023-05-11T20:30:25.401Z,44.31
2023-05-11T20:35:22.252Z,44.31
2023-05-11T20:37:48.625Z,44.35
2023-05-11T20:40:15.441Z,44.70
2023-05-11T20:42:41.794Z,44.56
2023-05-11T20:45:08.373Z,44.52
2023-05-11T20:47:34.776Z,44.29
2023-05-11T20:50:01.249Z,44.69
2023-05-11T20:52:27.567Z,44.69
2023-05-11T20:54:54.081Z,44.77
2023-05-11T20:57:20.798Z,44.85
2023-05-11T21:02:16.445Z,44.85
2023-05-11T21:04:42.809Z,44.63
2023-05-11T21:07:09.136Z,44.82
2023-05-11T21:09:35.666Z,44.86
2023-05-11T21:12:02.000Z,44.87
2023-05-11T21:14:28.347Z,45.06
2023-05-11T21:16:54.709Z,44.88
2023-05-11T21:19:21.123Z,45.01
2023-05-11T21:21:49.478Z,44.92
2023-05-11T21:24:16.085Z,45.16
2023-05-11T21:26:42.438Z,45.16
2023-05-11T21:29:08.823Z,45.31
2023-05-11T21:31:35.199Z,45.07
2023-05-11T21:34:01.664Z,45.21
2023-05-11T21:36:28.287Z,45.31
2023-05-11T21:38:54.630Z,45.32
2023-05-11T21:41:20.985Z,45.36
2023-05-11T21:43:47.305Z,45.11
2023-05-11T21:46:13.654Z,45.08
2023-05-11T21:48:40.108Z,45.38
2023-05-11T21:51:06.639Z,45.40
2023-05-11T21:53:32.985Z,45.51
2023-05-11T21:55:59.331Z,45.44
2023-05-11T21:58:26.290Z,45.45
2023-05-11T22:00:52.630Z,45.45
2023-05-11T22:03:19.357Z,45.54
2023-05-11T22:05:45.914Z,45.40
2023-05-11T22:08:15.303Z,45.53
2023-05-11T22:10:42.881Z,45.57
2023-05-11T22:13:09.259Z,45.55
2023-05-11T22:15:35.584Z,45.63
2023-05-11T22:18:01.962Z,45.57
2023-05-11T22:20:28.543Z,45.52
2023-05-11T22:22:54.886Z,45.59
2023-05-11T22:25:21.223Z,45.69
2023-05-11T22:27:47.864Z,45.66
2023-05-11T22:30:14.214Z,45.48
2023-05-11T22:32:40.586Z,45.54
2023-05-11T22:35:07.094Z,45.65
2023-05-11T22:37:33.586Z,45.56
2023-05-11T22:39:59.889Z,45.70
2023-05-11T22:42:26.216Z,45.43
2023-05-11T22:44:52.525Z,45.57
2023-05-11T22:47:18.893Z,45.76
2023-05-11T22:49:45.256Z,45.86
2023-05-11T22:52:11.599Z,45.69
2023-05-11T22:54:38.590Z,45.78
2023-05-11T22:57:04.948Z,45.58
2023-05-11T22:59:34.313Z,45.70
2023-05-11T23:02:01.746Z,46.00
2023-05-11T23:04:28.217Z,45.74
2023-05-11T23:06:54.548Z,45.78
2023-05-11T23:09:21.133Z,45.96
2023-05-11T23:11:48.730Z,45.73
2023-05-11T23:14:15.079Z,45.97
2023-05-11T23:16:42.206Z,46.03
2023-05-11T23:19:08.545Z,46.04
2023-05-11T23:21:34.881Z,45.95
2023-05-11T23:24:01.217Z,45.86
2023-05-11T23:26:27.552Z,46.11
2023-05-11T23:28:53.946Z,45.95
2023-05-11T23:31:20.353Z,45.90
2023-05-11T23:33:46.718Z,46.05
2023-05-11T23:36:13.026Z,46.06
2023-05-11T23:38:39.338Z,46.20
2023-05-11T23:41:06.229Z,45.92
2023-05-11T23:43:33.281Z,46.12
2023-05-11T23:46:01.039Z,46.13
2023-05-11T23:48:27.368Z,46.21
2023-05-11T23:50:53.692Z,46.08
2023-05-11T23:53:19.999Z,46.19
2023-05-11T23:55:46.804Z,45.94
2023-05-11T23:58:13.134Z,46.24
